Time,TemperatureF,DewpointF,PressureIn,WindDirection,WindDirectionDegrees,WindSpeedMPH,WindSpeedGustMPH,Humidity,HourlyPrecipIn,Conditions,Clouds,dailyrainin,SoftwareType,DateUTC
2013-01-14 00:00:00,11.2,9.3,30.43,South,191,0.0,14.0,92,0.00,,,0.00,Wunderground v.1.15,2013-01-14 06:00:00,
2013-01-14 00:10:00,10.8,8.7,30.43,South,191,0.0,14.0,91,0.00,,,0.00,Wunderground v.1.15,2013-01-14 06:10:00,
2013-01-14 00:20:00,10.2,8.1,30.44,South,191,0.0,14.0,91,0.00,,,0.00,Wunderground v.1.15,2013-01-14 06:20:00,
2013-01-14 00:30:00,10.3,8.4,30.44,South,191,0.0,14.0,92,0.00,,,0.00,Wunderground v.1.15,2013-01-14 06:30:00,
2013-01-14 00:40:00,10.6,8.7,30.45,South,191,0.0,14.0,92,0.00,,,0.00,Wunderground v.1.15,2013-01-14 06:40:00,
2013-01-14 00:50:00,10.6,9.0,30.45,South,191,0.0,14.0,93,0.00,,,0.00,Wunderground v.1.15,2013-01-14 06:50:00,
2013-01-14 01:00:00,10.1,8.2,30.45,South,191,0.0,14.0,92,0.00,,,0.00,Wunderground v.1.15,2013-01-14 07:00:00,
2013-01-14 01:05:00,9.8,7.9,30.46,South,191,0.0,14.0,92,0.00,,,0.00,Wunderground v.1.15,2013-01-14 07:05:00,
2013-01-14 01:15:00,9.8,7.9,30.46,South,191,0.0,14.0,92,0.00,,,0.00,Wunderground v.1.15,2013-01-14 07:15:00,
2013-01-14 01:20:00,9.9,8.0,30.47,South,191,0.0,14.0,92,0.00,,,0.00,Wunderground v.1.15,2013-01-14 07:20:00,
2013-01-14 01:25:00,10.0,8.4,30.47,South,191,0.0,14.0,93,0.00,,,0.00,Wunderground v.1.15,2013-01-14 07:25:00,
2013-01-14 01:30:00,10.1,8.5,30.47,South,191,0.0,14.0,93,0.00,,,0.00,Wunderground v.1.15,2013-01-14 07:30:00,
2013-01-14 01:40:00,10.2,8.3,30.48,South,191,0.0,14.0,92,0.00,,,0.00,Wunderground v.1.15,2013-01-14 07:40:00,
2013-01-14 01:45:00,10.0,8.1,30.48,South,191,0.0,14.0,92,0.00,,,0.00,Wunderground v.1.15,2013-01-14 07:45:00,
2013-01-14 01:55:00,9.5,7.6,30.48,South,191,0.0,14.0,92,0.00,,,0.00,Wunderground v.1.15,2013-01-14 07:55:00,
2013-01-14 02:05:00,9.2,7.3,30.48,South,191,0.0,14.0,92,0.00,,,0.00,Wunderground v.1.15,2013-01-14 08:05:00,
2013-01-14 02:15:00,9.1,7.2,30.49,South,191,0.0,14.0,92,0.00,,,0.00,Wunderground v.1.15,2013-01-14 08:15:00,
2013-01-14 02:25:00,8.9,7.1,30.49,South,191,0.0,14.0,92,0.00,,,0.00,Wunderground v.1.15,2013-01-14 08:25:00,
2013-01-14 02:34:00,8.9,7.3,30.48,South,191,0.0,14.0,93,0.00,,,0.00,Wunderground v.1.15,2013-01-14 08:34:00,
2013-01-14 02:40:00,9.0,7.4,30.48,South,191,0.0,14.0,93,0.00,,,0.00,Wunderground v.1.15,2013-01-14 08:40:00,
2013-01-14 02:45:00,8.9,7.1,30.48,South,191,0.0,14.0,92,0.00,,,0.00,Wunderground v.1.15,2013-01-14 08:45:00,
2013-01-14 02:54:00,8.7,6.9,30.48,South,191,0.0,14.0,92,0.00,,,0.00,Wunderground v.1.15,2013-01-14 08:54:00,
2013-01-14 02:59:00,8.5,6.7,30.48,South,191,0.0,14.0,92,0.00,,,0.00,Wunderground v.1.15,2013-01-14 08:59:00,
2013-01-14 03:05:00,8.2,6.4,30.48,South,191,0.0,14.0,92,0.00,,,0.00,Wunderground v.1.15,2013-01-14 09:05:00,
2013-01-14 03:15:00,7.7,5.6,30.48,South,191,0.0,14.0,91,0.00,,,0.00,Wunderground v.1.15,2013-01-14 09:15:00,
2013-01-14 03:25:00,7.8,6.0,30.48,South,191,0.0,14.0,92,0.00,,,0.00,Wunderground v.1.15,2013-01-14 09:25:00,
2013-01-14 03:30:00,8.0,6.2,30.48,South,191,0.0,14.0,92,0.00,,,0.00,Wunderground v.1.15,2013-01-14 09:30:00,
2013-01-14 03:40:00,8.0,6.2,30.49,South,191,0.0,14.0,92,0.00,,,0.00,Wunderground v.1.15,2013-01-14 09:40:00,
2013-01-14 03:50:00,7.7,5.9,30.48,South,191,0.0,14.0,92,0.00,,,0.00,Wunderground v.1.15,2013-01-14 09:50:00,
2013-01-14 04:00:00,7.9,6.1,30.48,South,191,0.0,14.0,92,0.00,,,0.00,Wunderground v.1.15,2013-01-14 10:00:00,
2013-01-14 04:05:00,8.0,6.2,30.48,South,191,0.0,14.0,92,0.00,,,0.00,Wunderground v.1.15,2013-01-14 10:05:00,
2013-01-14 04:15:00,7.9,6.1,30.47,South,191,0.0,14.0,92,0.00,,,0.00,Wunderground v.1.15,2013-01-14 10:15:00,
2013-01-14 04:25:00,7.9,6.1,30.47,South,191,0.0,14.0,92,0.00,,,0.00,Wunderground v.1.15,2013-01-14 10:25:00,
2013-01-14 04:35:00,7.5,5.4,30.46,South,191,0.0,14.0,91,0.00,,,0.00,Wunderground v.1.15,2013-01-14 10:35:00,
2013-01-14 04:45:00,7.1,5.3,30.46,South,191,0.0,14.0,92,0.00,,,0.00,Wunderground v.1.15,2013-01-14 10:45:00,
2013-01-14 04:54:00,6.7,4.6,30.46,South,191,0.0,14.0,91,0.00,,,0.00,Wunderground v.1.15,2013-01-14 10:54:00,
2013-01-14 04:59:00,6.4,4.3,30.46,South,191,0.0,14.0,91,0.00,,,0.00,Wunderground v.1.15,2013-01-14 10:59:00,
2013-01-14 05:05:00,6.3,4.5,30.46,South,191,0.0,14.0,92,0.00,,,0.00,Wunderground v.1.15,2013-01-14 11:05:00,
2013-01-14 05:15:00,6.2,4.1,30.46,South,191,0.0,14.0,91,0.00,,,0.00,Wunderground v.1.15,2013-01-14 11:15:00,
2013-01-14 05:20:00,6.1,4.0,30.47,South,191,0.0,14.0,91,0.00,,,0.00,Wunderground v.1.15,2013-01-14 11:20:00,
2013-01-14 05:30:00,6.2,4.4,30.46,South,191,0.0,14.0,92,0.00,,,0.00,Wunderground v.1.15,2013-01-14 11:30:00,
2013-01-14 05:40:00,6.8,5.2,30.45,South,191,0.0,14.0,93,0.00,,,0.00,Wunderground v.1.15,2013-01-14 11:40:00,
2013-01-14 05:45:00,7.0,5.4,30.45,South,191,0.0,14.0,93,0.00,,,0.00,Wunderground v.1.15,2013-01-14 11:45:00,
2013-01-14 05:55:00,6.9,5.1,30.45,South,191,0.0,14.0,92,0.00,,,0.00,Wunderground v.1.15,2013-01-14 11:55:00,
2013-01-14 06:00:00,6.8,4.7,30.45,South,191,0.0,14.0,91,0.00,,,0.00,Wunderground v.1.15,2013-01-14 12:00:00,
2013-01-14 06:09:00,6.5,4.4,30.45,South,191,0.0,14.0,91,0.00,,,0.00,Wunderground v.1.15,2013-01-14 12:09:00,
2013-01-14 06:15:00,6.4,4.3,30.45,South,191,0.0,14.0,91,0.00,,,0.00,Wunderground v.1.15,2013-01-14 12:15:00,
2013-01-14 06:25:00,6.5,4.7,30.45,South,191,0.0,14.0,92,0.00,,,0.00,Wunderground v.1.15,2013-01-14 12:25:00,
2013-01-14 06:30:00,6.7,4.9,30.46,South,191,0.0,14.0,92,0.00,,,0.00,Wunderground v.1.15,2013-01-14 12:30:00,
2013-01-14 06:40:00,7.1,5.3,30.47,South,191,0.0,14.0,92,0.00,,,0.00,Wunderground v.1.15,2013-01-14 12:40:00,
2013-01-14 06:50:00,7.3,5.5,30.49,South,191,0.0,14.0,92,0.00,,,0.00,Wunderground v.1.15,2013-01-14 12:50:00,
2013-01-14 06:54:00,7.3,5.5,30.49,South,191,0.0,14.0,92,0.00,,,0.00,Wunderground v.1.15,2013-01-14 12:54:00,
2013-01-14 07:00:00,7.4,5.6,30.49,South,191,0.0,14.0,92,0.00,,,0.00,Wunderground v.1.15,2013-01-14 13:00:00,
2013-01-14 07:10:00,7.7,5.9,30.49,South,191,0.0,14.0,92,0.00,,,0.00,Wunderground v.1.15,2013-01-14 13:10:00,
2013-01-14 07:15:00,7.9,6.1,30.49,South,191,0.0,14.0,92,0.00,,,0.00,Wunderground v.1.15,2013-01-14 13:15:00,
2013-01-14 07:25:00,8.3,6.5,30.49,South,191,0.0,14.0,92,0.00,,,0.00,Wunderground v.1.15,2013-01-14 13:25:00,
2013-01-14 07:34:00,8.7,6.9,30.49,South,191,0.0,14.0,92,0.00,,,0.00,Wunderground v.1.15,2013-01-14 13:34:00,
2013-01-14 07:39:00,9.0,7.1,30.49,South,191,0.0,14.0,92,0.00,,,0.00,Wunderground v.1.15,2013-01-14 13:39:00,
2013-01-14 07:45:00,9.3,7.4,30.50,South,191,0.0,14.0,92,0.00,,,0.00,Wunderground v.1.15,2013-01-14 13:45:00,
2013-01-14 07:55:00,10.4,8.8,30.50,South,191,0.0,14.0,93,0.00,,,0.00,Wunderground v.1.15,2013-01-14 13:55:00,
2013-01-14 08:05:00,12.0,10.4,30.50,South,191,0.0,14.0,93,0.00,,,0.00,Wunderground v.1.15,2013-01-14 14:05:00,
2013-01-14 08:15:00,12.2,10.3,30.52,South,191,0.0,14.0,92,0.00,,,0.00,Wunderground v.1.15,2013-01-14 14:15:00,
2013-01-14 08:25:00,12.7,10.8,30.52,South,191,0.0,14.0,92,0.00,,,0.00,Wunderground v.1.15,2013-01-14 14:25:00,
2013-01-14 08:35:00,13.0,11.1,30.53,South,191,0.0,14.0,92,0.00,,,0.00,Wunderground v.1.15,2013-01-14 14:35:00,
2013-01-14 08:45:00,13.4,11.5,30.54,South,191,0.0,14.0,92,0.00,,,0.00,Wunderground v.1.15,2013-01-14 14:45:00,
2013-01-14 08:55:00,14.0,12.1,30.53,South,191,0.0,14.0,92,0.00,,,0.00,Wunderground v.1.15,2013-01-14 14:55:00,
2013-01-14 09:05:00,14.8,13.1,30.52,SSW,193,0.0,14.0,93,0.00,,,0.00,Wunderground v.1.15,2013-01-14 15:05:00,
2013-01-14 09:15:00,16.3,14.6,30.53,SSW,193,0.0,14.0,93,0.00,,,0.00,Wunderground v.1.15,2013-01-14 15:15:00,
2013-01-14 09:20:00,16.9,15.2,30.54,SSW,193,0.0,14.0,93,0.00,,,0.00,Wunderground v.1.15,2013-01-14 15:20:00,
2013-01-14 09:29:00,17.8,15.9,30.54,SSW,193,0.0,14.0,92,0.00,,,0.00,Wunderground v.1.15,2013-01-14 15:29:00,
2013-01-14 09:35:00,18.1,15.9,30.53,SSW,193,0.0,14.0,91,0.00,,,0.00,Wunderground v.1.15,2013-01-14 15:35:00,
2013-01-14 09:40:00,18.3,15.9,30.52,SW,229,0.0,14.0,90,0.00,,,0.00,Wunderground v.1.15,2013-01-14 15:40:00,
2013-01-14 09:50:00,19.0,16.6,30.53,SW,229,0.0,14.0,90,0.00,,,0.00,Wunderground v.1.15,2013-01-14 15:50:00,
2013-01-14 10:00:00,19.3,16.3,30.54,SW,229,1.0,1.0,88,0.00,,,0.00,Wunderground v.1.15,2013-01-14 16:00:00,
2013-01-14 10:10:00,19.5,16.3,30.54,SW,229,0.0,14.0,87,0.00,,,0.00,Wunderground v.1.15,2013-01-14 16:10:00,
2013-01-14 10:15:00,19.6,16.4,30.53,SW,229,0.0,14.0,87,0.00,,,0.00,Wunderground v.1.15,2013-01-14 16:15:00,
2013-01-14 10:25:00,19.7,16.2,30.54,SW,229,1.0,14.0,86,0.00,,,0.00,Wunderground v.1.15,2013-01-14 16:25:00,
2013-01-14 10:35:00,20.4,16.9,30.54,SW,229,1.0,14.0,86,0.00,,,0.00,Wunderground v.1.15,2013-01-14 16:35:00,
2013-01-14 10:45:00,21.9,18.4,30.54,SW,229,1.0,14.0,86,0.00,,,0.00,Wunderground v.1.15,2013-01-14 16:45:00,
2013-01-14 10:49:00,22.5,18.4,30.55,SW,229,1.0,14.0,84,0.00,,,0.00,Wunderground v.1.15,2013-01-14 16:49:00,
2013-01-14 10:54:00,23.1,19.3,30.55,SW,229,1.0,14.0,85,0.00,,,0.00,Wunderground v.1.15,2013-01-14 16:54:00,
2013-01-14 11:00:00,23.8,19.4,30.55,SW,229,1.0,14.0,83,0.00,,,0.00,Wunderground v.1.15,2013-01-14 17:00:00,
2013-01-14 11:10:00,23.8,19.1,30.55,SW,229,1.0,14.0,82,0.00,,,0.00,Wunderground v.1.15,2013-01-14 17:10:00,
2013-01-14 11:20:00,24.5,19.5,30.54,SW,229,0.0,14.0,81,0.00,,,0.00,Wunderground v.1.15,2013-01-14 17:20:00,
2013-01-14 11:30:00,24.6,18.7,30.55,SW,229,1.0,1.0,78,0.00,,,0.00,Wunderground v.1.15,2013-01-14 17:30:00,
2013-01-14 11:40:00,25.7,19.2,30.54,SW,229,0.0,14.0,76,0.00,,,0.00,Wunderground v.1.15,2013-01-14 17:40:00,
2013-01-14 11:50:00,24.9,19.0,30.54,SW,229,1.0,14.0,78,0.00,,,0.00,Wunderground v.1.15,2013-01-14 17:50:00,
2013-01-14 11:55:00,24.9,19.3,30.54,SW,229,1.0,14.0,79,0.00,,,0.00,Wunderground v.1.15,2013-01-14 17:55:00,
2013-01-14 12:05:00,25.3,19.1,30.52,SW,231,1.0,14.0,77,0.00,,,0.00,Wunderground v.1.15,2013-01-14 18:05:00,
2013-01-14 12:14:00,25.1,18.9,30.52,SW,229,0.0,14.0,77,0.00,,,0.00,Wunderground v.1.15,2013-01-14 18:14:00,
2013-01-14 12:20:00,25.2,19.0,30.51,SW,229,1.0,14.0,77,0.00,,,0.00,Wunderground v.1.15,2013-01-14 18:20:00,
2013-01-14 12:30:00,25.4,19.2,30.51,SW,231,1.0,1.0,77,0.00,,,0.00,Wunderground v.1.15,2013-01-14 18:30:00,
2013-01-14 12:35:00,25.4,19.8,30.50,SW,231,1.0,14.0,79,0.00,,,0.00,Wunderground v.1.15,2013-01-14 18:35:00,
2013-01-14 12:45:00,25.5,19.0,30.50,SW,231,1.0,2.0,76,0.00,,,0.00,Wunderground v.1.15,2013-01-14 18:45:00,
2013-01-14 12:54:00,26.4,19.5,30.49,SW,231,0.0,14.0,75,0.00,,,0.00,Wunderground v.1.15,2013-01-14 18:54:00,
2013-01-14 13:00:00,26.3,19.1,30.49,SW,230,1.0,1.0,74,0.00,,,0.00,Wunderground v.1.15,2013-01-14 19:00:00,
2013-01-14 13:10:00,27.1,20.5,30.49,SW,231,0.0,14.0,76,0.00,,,0.00,Wunderground v.1.15,2013-01-14 19:10:00,
2013-01-14 13:20:00,27.6,21.0,30.48,SW,231,0.0,14.0,76,0.00,,,0.00,Wunderground v.1.15,2013-01-14 19:20:00,
2013-01-14 13:29:00,27.1,19.9,30.48,SW,231,2.0,2.0,74,0.00,,,0.00,Wunderground v.1.15,2013-01-14 19:29:00,
2013-01-14 13:34:00,27.2,20.9,30.47,SW,231,2.0,14.0,77,0.00,,,0.00,Wunderground v.1.15,2013-01-14 19:34:00,
2013-01-14 13:40:00,27.2,20.9,30.48,SW,230,1.0,1.0,77,0.00,,,0.00,Wunderground v.1.15,2013-01-14 19:40:00,
2013-01-14 13:50:00,27.3,20.1,30.47,SW,231,1.0,14.0,74,0.00,,,0.00,Wunderground v.1.15,2013-01-14 19:50:00,
2013-01-14 14:00:00,27.1,20.2,30.47,SW,232,2.0,14.0,75,0.00,,,0.00,Wunderground v.1.15,2013-01-14 20:00:00,
2013-01-14 14:09:00,27.7,21.4,30.47,NNW,328,1.0,1.0,77,0.00,,,0.00,Wunderground v.1.15,2013-01-14 20:09:00,
2013-01-14 14:20:00,27.8,21.5,30.46,North,1,1.0,14.0,77,0.00,,,0.00,Wunderground v.1.15,2013-01-14 20:20:00,
2013-01-14 14:30:00,28.0,22.0,30.46,SW,233,1.0,1.0,78,0.00,,,0.00,Wunderground v.1.15,2013-01-14 20:30:00,
2013-01-14 14:40:00,28.2,21.3,30.47,SW,231,1.0,14.0,75,0.00,,,0.00,Wunderground v.1.15,2013-01-14 20:40:00,
2013-01-14 14:50:00,28.0,21.1,30.47,NNE,13,1.0,1.0,75,0.00,,,0.00,Wunderground v.1.15,2013-01-14 20:50:00,
2013-01-14 15:00:00,28.3,22.0,30.47,North,350,0.0,14.0,77,0.00,,,0.00,Wunderground v.1.15,2013-01-14 21:00:00,
2013-01-14 15:05:00,28.2,21.6,30.47,NNE,26,0.0,14.0,76,0.00,,,0.00,Wunderground v.1.15,2013-01-14 21:05:00,
2013-01-14 15:15:00,27.7,21.1,30.46,NNW,342,1.0,4.0,76,0.00,,,0.00,Wunderground v.1.15,2013-01-14 21:15:00,
2013-01-14 15:25:00,27.7,21.1,30.46,NNE,19,1.0,14.0,76,0.00,,,0.00,Wunderground v.1.15,2013-01-14 21:25:00,
2013-01-14 15:34:00,27.6,21.0,30.46,West,281,1.0,14.0,76,0.00,,,0.00,Wunderground v.1.15,2013-01-14 21:34:00,
2013-01-14 15:40:00,27.7,21.1,30.46,NNW,330,1.0,14.0,76,0.00,,,0.00,Wunderground v.1.15,2013-01-14 21:40:00,
2013-01-14 15:50:00,27.2,20.6,30.46,WNW,298,1.0,1.0,76,0.00,,,0.00,Wunderground v.1.15,2013-01-14 21:50:00,
2013-01-14 16:00:00,27.0,21.1,30.45,NNW,342,1.0,1.0,78,0.00,,,0.00,Wunderground v.1.15,2013-01-14 22:00:00,
2013-01-14 16:09:00,26.8,20.9,30.46,NNW,338,1.0,14.0,78,0.00,,,0.00,Wunderground v.1.15,2013-01-14 22:09:00,
2013-01-14 16:20:00,26.5,20.9,30.46,NNW,335,1.0,1.0,79,0.00,,,0.00,Wunderground v.1.15,2013-01-14 22:20:00,
2013-01-14 16:30:00,26.1,20.2,30.46,NNW,336,0.0,14.0,78,0.00,,,0.00,Wunderground v.1.15,2013-01-14 22:30:00,
2013-01-14 16:40:00,25.4,19.5,30.45,North,358,1.0,14.0,78,0.00,,,0.00,Wunderground v.1.15,2013-01-14 22:40:00,
2013-01-14 16:49:00,24.9,19.6,30.46,NW,321,1.0,14.0,80,0.00,,,0.00,Wunderground v.1.15,2013-01-14 22:49:00,
2013-01-14 16:55:00,24.7,19.7,30.46,North,3,1.0,14.0,81,0.00,,,0.00,Wunderground v.1.15,2013-01-14 22:55:00,
2013-01-14 17:05:00,24.3,19.3,30.46,NNW,341,0.0,14.0,81,0.00,,,0.00,Wunderground v.1.15,2013-01-14 23:05:00,
2013-01-14 17:15:00,23.8,19.1,30.46,North,4,0.0,14.0,82,0.00,,,0.00,Wunderground v.1.15,2013-01-14 23:15:00,
2013-01-14 17:24:00,23.1,18.7,30.46,North,4,0.0,14.0,83,0.00,,,0.00,Wunderground v.1.15,2013-01-14 23:24:00,
2013-01-14 17:30:00,22.8,19.0,30.46,North,352,0.0,14.0,85,0.00,,,0.00,Wunderground v.1.15,2013-01-14 23:30:00,
2013-01-14 17:40:00,22.3,18.5,30.45,North,352,0.0,14.0,85,0.00,,,0.00,Wunderground v.1.15,2013-01-14 23:40:00,
2013-01-14 17:50:00,21.8,18.3,30.45,North,353,0.0,14.0,86,0.00,,,0.00,Wunderground v.1.15,2013-01-14 23:50:00,
2013-01-14 17:55:00,21.7,18.4,30.45,NNW,330,0.0,14.0,87,0.00,,,0.00,Wunderground v.1.15,2013-01-14 23:55:00,
2013-01-14 18:00:00,21.6,18.3,30.45,NNW,330,0.0,14.0,87,0.00,,,0.00,Wunderground v.1.15,2013-01-15 00:00:00,
2013-01-14 18:10:00,21.2,17.9,30.45,NNW,332,0.0,14.0,87,0.00,,,0.00,Wunderground v.1.15,2013-01-15 00:10:00,
2013-01-14 18:20:00,20.8,17.8,30.45,NNW,331,0.0,14.0,88,0.00,,,0.00,Wunderground v.1.15,2013-01-15 00:20:00,
2013-01-14 18:25:00,20.7,17.7,30.45,NNW,332,0.0,14.0,88,0.00,,,0.00,Wunderground v.1.15,2013-01-15 00:25:00,
2013-01-14 18:30:00,20.5,17.5,30.46,NNW,330,0.0,14.0,88,0.00,,,0.00,Wunderground v.1.15,2013-01-15 00:30:00,
2013-01-14 18:40:00,20.1,17.4,30.45,NNW,332,0.0,14.0,89,0.00,,,0.00,Wunderground v.1.15,2013-01-15 00:40:00,
2013-01-14 18:50:00,20.0,17.5,30.45,NNW,332,0.0,14.0,90,0.00,,,0.00,Wunderground v.1.15,2013-01-15 00:50:00,
2013-01-14 18:59:00,19.8,17.3,30.45,NNW,332,0.0,14.0,90,0.00,,,0.00,Wunderground v.1.15,2013-01-15 00:59:00,
2013-01-14 19:10:00,20.0,17.5,30.45,NW,318,0.0,14.0,90,0.00,,,0.00,Wunderground v.1.15,2013-01-15 01:10:00,
2013-01-14 19:20:00,19.8,17.3,30.45,NW,318,0.0,14.0,90,0.00,,,0.00,Wunderground v.1.15,2013-01-15 01:20:00,
2013-01-14 19:30:00,19.3,16.8,30.45,NW,317,0.0,14.0,90,0.00,,,0.00,Wunderground v.1.15,2013-01-15 01:30:00,
2013-01-14 19:40:00,19.2,17.0,30.45,NW,317,0.0,14.0,91,0.00,,,0.00,Wunderground v.1.15,2013-01-15 01:40:00,
2013-01-14 19:49:00,19.3,17.1,30.45,NW,319,0.0,14.0,91,0.00,,,0.00,Wunderground v.1.15,2013-01-15 01:49:00,
2013-01-14 19:55:00,19.2,17.0,30.45,NW,314,0.0,14.0,91,0.00,,,0.00,Wunderground v.1.15,2013-01-15 01:55:00,
2013-01-14 20:05:00,19.0,16.8,30.45,NW,313,0.0,14.0,91,0.00,,,0.00,Wunderground v.1.15,2013-01-15 02:05:00,
2013-01-14 20:15:00,18.7,16.3,30.45,NW,315,0.0,14.0,90,0.00,,,0.00,Wunderground v.1.15,2013-01-15 02:15:00,
2013-01-14 20:25:00,18.7,16.5,30.45,NW,314,0.0,14.0,91,0.00,,,0.00,Wunderground v.1.15,2013-01-15 02:25:00,
2013-01-14 20:30:00,18.7,16.5,30.45,NW,314,0.0,14.0,91,0.00,,,0.00,Wunderground v.1.15,2013-01-15 02:30:00,
2013-01-14 20:40:00,18.8,16.6,30.45,WNW,293,0.0,14.0,91,0.00,,,0.00,Wunderground v.1.15,2013-01-15 02:40:00,
2013-01-14 20:45:00,18.6,16.4,30.45,WNW,293,0.0,14.0,91,0.00,,,0.00,Wunderground v.1.15,2013-01-15 02:45:00,
2013-01-14 20:50:00,18.4,16.2,30.45,WNW,295,0.0,14.0,91,0.00,,,0.00,Wunderground v.1.15,2013-01-15 02:50:00,
2013-01-14 20:59:00,17.8,15.6,30.45,WNW,295,0.0,14.0,91,0.00,,,0.00,Wunderground v.1.15,2013-01-15 02:59:00,
2013-01-14 21:10:00,17.8,15.9,30.44,WNW,295,0.0,14.0,92,0.00,,,0.00,Wunderground v.1.15,2013-01-15 03:10:00,
2013-01-14 21:20:00,18.0,16.1,30.44,WNW,293,0.0,14.0,92,0.00,,,0.00,Wunderground v.1.15,2013-01-15 03:20:00,
2013-01-14 21:30:00,18.1,16.2,30.45,WNW,294,0.0,14.0,92,0.00,,,0.00,Wunderground v.1.15,2013-01-15 03:30:00,
2013-01-14 21:39:00,18.4,16.5,30.45,WNW,283,0.0,14.0,92,0.00,,,0.00,Wunderground v.1.15,2013-01-15 03:39:00,
2013-01-14 21:50:00,18.5,16.3,30.45,WNW,284,0.0,14.0,91,0.00,,,0.00,Wunderground v.1.15,2013-01-15 03:50:00,
2013-01-14 22:00:00,18.0,15.8,30.45,WNW,284,0.0,14.0,91,0.00,,,0.00,Wunderground v.1.15,2013-01-15 04:00:00,
2013-01-14 22:05:00,17.8,15.6,30.45,WNW,284,0.0,14.0,91,0.00,,,0.00,Wunderground v.1.15,2013-01-15 04:05:00,
2013-01-14 22:15:00,17.2,15.0,30.45,WNW,284,0.0,14.0,91,0.00,,,0.00,Wunderground v.1.15,2013-01-15 04:15:00,
2013-01-14 22:25:00,16.7,14.5,30.45,WNW,284,0.0,14.0,91,0.00,,,0.00,Wunderground v.1.15,2013-01-15 04:25:00,
2013-01-14 22:30:00,16.2,13.8,30.45,WNW,284,0.0,14.0,90,0.00,,,0.00,Wunderground v.1.15,2013-01-15 04:30:00,
2013-01-14 22:40:00,15.3,12.9,30.46,WNW,284,0.0,14.0,90,0.00,,,0.00,Wunderground v.1.15,2013-01-15 04:40:00,
2013-01-14 22:50:00,14.3,11.9,30.46,WNW,284,0.0,14.0,90,0.00,,,0.00,Wunderground v.1.15,2013-01-15 04:50:00,
2013-01-14 22:55:00,14.1,12.0,30.46,WNW,284,0.0,14.0,91,0.00,,,0.00,Wunderground v.1.15,2013-01-15 04:55:00,
2013-01-14 23:04:00,14.2,12.3,30.46,WNW,284,0.0,14.0,92,0.00,,,0.00,Wunderground v.1.15,2013-01-15 05:04:00,
2013-01-14 23:10:00,14.2,12.3,30.46,WNW,284,0.0,14.0,92,0.00,,,0.00,Wunderground v.1.15,2013-01-15 05:10:00,
2013-01-14 23:15:00,14.1,12.2,30.46,WNW,284,0.0,14.0,92,0.00,,,0.00,Wunderground v.1.15,2013-01-15 05:15:00,
2013-01-14 23:25:00,13.7,11.8,30.45,WNW,284,0.0,14.0,92,0.00,,,0.00,Wunderground v.1.15,2013-01-15 05:25:00,
2013-01-14 23:35:00,13.3,11.4,30.45,WNW,284,0.0,14.0,92,0.00,,,0.00,Wunderground v.1.15,2013-01-15 05:35:00,
2013-01-14 23:40:00,13.1,11.2,30.45,WNW,284,0.0,14.0,92,0.00,,,0.00,Wunderground v.1.15,2013-01-15 05:40:00,
2013-01-14 23:45:00,13.1,11.2,30.45,WNW,284,0.0,14.0,92,0.00,,,0.00,Wunderground v.1.15,2013-01-15 05:45:00,
2013-01-14 23:55:00,13.3,11.4,30.45,WNW,284,0.0,14.0,92,0.00,,,0.00,Wunderground v.1.15,2013-01-15 05:55:00,